Archival Weather

Chicago O'Hare International

Chicago, Illinois (KORD)

Report from: Sunday, December 25, 2022 12:51 PM CST
Current time: Friday, June 14, 2024 6:49 AM CDT

Current weather – Weather history – Daily summaries
Weather forecast

Temperature-11.1°C (12.0°F)
Wind chill-20.6°C (-5.1°F)
Dew point-18.3°C (-0.9°F)
Winds 15 kts (7.7 m/s, 17.3 mph) West-Southwest (250°)
Wind gusts 24 kts (12.3 m/s, 27.6 mph)
Visibility10 mi. (16.1 km)
Clouds Few clouds 3,000 ft. (914 m)
Few clouds 25,000 ft. (7,620 m)
Altimeter30.03 in.Hg (1017 mB)
Relative humidity55 %
Density altitude-3,414 ft. (-1,041 m)
Sea-level pressure101.8 kPa (1018 mB, 30.07 in.Hg)
Remarks System requires maintenance
Automated weather observing station with precipitation discriminator
Flight conditions Visual Meteorological Conditions
Raw dataKORD 251851Z 25015G24KT 10SM FEW030 FEW250 M11/M18 A3003 RMK AO2 SLP182 T11111183 $
An error has occurred. This application may no longer respond until reloaded. Reload 🗙